sensor_id;sensor_type;location;lat;lon;timestamp;P1;durP1;ratioP1;P2;durP2;ratioP2
43807;SDS011;29438;50.664;10.098;2022-08-02T00:00:09;2.58;;;2.05;;
43807;SDS011;29438;50.664;10.098;2022-08-02T00:02:37;2.78;;;2.15;;
43807;SDS011;29438;50.664;10.098;2022-08-02T00:05:03;2.45;;;1.98;;
43807;SDS011;29438;50.664;10.098;2022-08-02T00:07:29;3.42;;;2.40;;
43807;SDS011;29438;50.664;10.098;2022-08-02T00:09:54;2.60;;;2.15;;
43807;SDS011;29438;50.664;10.098;2022-08-02T00:12:20;2.80;;;2.20;;
43807;SDS011;29438;50.664;10.098;2022-08-02T00:14:46;3.28;;;2.20;;
43807;SDS011;29438;50.664;10.098;2022-08-02T00:17:11;3.03;;;2.28;;
43807;SDS011;29438;50.664;10.098;2022-08-02T00:19:37;2.97;;;2.25;;
43807;SDS011;29438;50.664;10.098;2022-08-02T00:22:02;4.20;;;2.78;;
43807;SDS011;29438;50.664;10.098;2022-08-02T00:24:28;5.35;;;2.67;;
43807;SDS011;29438;50.664;10.098;2022-08-02T00:26:53;2.92;;;2.33;;
43807;SDS011;29438;50.664;10.098;2022-08-02T00:29:19;2.70;;;2.35;;
43807;SDS011;29438;50.664;10.098;2022-08-02T00:31:44;3.40;;;2.80;;
43807;SDS011;29438;50.664;10.098;2022-08-02T00:34:09;3.13;;;2.67;;
43807;SDS011;29438;50.664;10.098;2022-08-02T00:36:35;4.85;;;2.90;;
43807;SDS011;29438;50.664;10.098;2022-08-02T00:39:00;3.75;;;2.97;;
43807;SDS011;29438;50.664;10.098;2022-08-02T00:41:26;3.85;;;2.75;;
43807;SDS011;29438;50.664;10.098;2022-08-02T00:43:51;3.22;;;2.75;;
43807;SDS011;29438;50.664;10.098;2022-08-02T00:46:17;5.03;;;3.08;;
43807;SDS011;29438;50.664;10.098;2022-08-02T00:48:45;3.85;;;2.78;;
43807;SDS011;29438;50.664;10.098;2022-08-02T00:51:11;3.47;;;2.80;;
43807;SDS011;29438;50.664;10.098;2022-08-02T00:53:38;3.97;;;3.08;;
43807;SDS011;29438;50.664;10.098;2022-08-02T00:56:04;4.03;;;3.15;;
43807;SDS011;29438;50.664;10.098;2022-08-02T00:58:30;5.15;;;3.17;;
43807;SDS011;29438;50.664;10.098;2022-08-02T01:00:55;5.10;;;3.17;;
43807;SDS011;29438;50.664;10.098;2022-08-02T01:03:22;4.20;;;3.03;;
43807;SDS011;29438;50.664;10.098;2022-08-02T01:05:49;4.45;;;2.92;;
43807;SDS011;29438;50.664;10.098;2022-08-02T01:08:14;4.25;;;3.28;;
43807;SDS011;29438;50.664;10.098;2022-08-02T01:10:40;4.43;;;3.40;;
43807;SDS011;29438;50.664;10.098;2022-08-02T01:13:05;3.83;;;2.92;;
43807;SDS011;29438;50.664;10.098;2022-08-02T01:15:32;4.20;;;3.20;;
43807;SDS011;29438;50.664;10.098;2022-08-02T01:18:05;3.97;;;3.20;;
43807;SDS011;29438;50.664;10.098;2022-08-02T01:20:48;4.53;;;2.95;;
43807;SDS011;29438;50.664;10.098;2022-08-02T01:23:22;4.78;;;3.20;;
43807;SDS011;29438;50.664;10.098;2022-08-02T01:26:20;5.13;;;3.50;;
43807;SDS011;29438;50.664;10.098;2022-08-02T01:29:33;4.45;;;3.45;;
43807;SDS011;29438;50.664;10.098;2022-08-02T01:32:05;4.30;;;3.15;;
43807;SDS011;29438;50.664;10.098;2022-08-02T01:34:35;4.50;;;3.55;;
43807;SDS011;29438;50.664;10.098;2022-08-02T01:39:47;4.78;;;3.38;;
43807;SDS011;29438;50.664;10.098;2022-08-02T01:42:18;4.57;;;3.25;;
43807;SDS011;29438;50.664;10.098;2022-08-02T01:44:46;4.65;;;3.63;;
43807;SDS011;29438;50.664;10.098;2022-08-02T01:47:16;4.30;;;3.45;;
43807;SDS011;29438;50.664;10.098;2022-08-02T01:49:45;5.97;;;3.58;;
43807;SDS011;29438;50.664;10.098;2022-08-02T01:52:14;4.13;;;3.42;;
43807;SDS011;29438;50.664;10.098;2022-08-02T01:54:51;4.47;;;3.67;;
43807;SDS011;29438;50.664;10.098;2022-08-02T01:57:19;5.03;;;3.78;;
43807;SDS011;29438;50.664;10.098;2022-08-02T01:59:46;4.60;;;3.58;;
43807;SDS011;29438;50.664;10.098;2022-08-02T02:02:13;5.57;;;3.78;;
43807;SDS011;29438;50.664;10.098;2022-08-02T02:04:40;5.22;;;4.13;;
43807;SDS011;29438;50.664;10.098;2022-08-02T02:07:07;5.47;;;3.83;;
43807;SDS011;29438;50.664;10.098;2022-08-02T02:09:36;4.70;;;3.75;;
43807;SDS011;29438;50.664;10.098;2022-08-02T02:12:02;5.45;;;3.90;;
43807;SDS011;29438;50.664;10.098;2022-08-02T02:14:30;4.57;;;3.83;;
43807;SDS011;29438;50.664;10.098;2022-08-02T02:16:57;4.75;;;3.85;;
43807;SDS011;29438;50.664;10.098;2022-08-02T02:19:24;6.55;;;4.00;;
43807;SDS011;29438;50.664;10.098;2022-08-02T02:21:50;4.93;;;3.70;;
43807;SDS011;29438;50.664;10.098;2022-08-02T02:24:16;5.28;;;3.58;;
43807;SDS011;29438;50.664;10.098;2022-08-02T02:26:41;5.30;;;4.03;;
43807;SDS011;29438;50.664;10.098;2022-08-02T02:29:08;4.90;;;3.72;;
43807;SDS011;29438;50.664;10.098;2022-08-02T02:31:36;6.22;;;3.85;;
43807;SDS011;29438;50.664;10.098;2022-08-02T02:34:04;5.32;;;4.10;;
43807;SDS011;29438;50.664;10.098;2022-08-02T02:36:38;6.20;;;3.80;;
43807;SDS011;29438;50.664;10.098;2022-08-02T02:39:06;6.22;;;4.40;;
43807;SDS011;29438;50.664;10.098;2022-08-02T02:41:33;4.45;;;3.60;;
43807;SDS011;29438;50.664;10.098;2022-08-02T02:44:01;5.55;;;3.72;;
43807;SDS011;29438;50.664;10.098;2022-08-02T02:46:29;5.03;;;3.83;;
43807;SDS011;29438;50.664;10.098;2022-08-02T02:48:56;5.15;;;3.78;;
43807;SDS011;29438;50.664;10.098;2022-08-02T02:51:22;5.15;;;3.72;;
43807;SDS011;29438;50.664;10.098;2022-08-02T02:53:49;5.13;;;3.60;;
43807;SDS011;29438;50.664;10.098;2022-08-02T02:56:16;5.13;;;3.97;;
43807;SDS011;29438;50.664;10.098;2022-08-02T02:58:42;4.75;;;3.75;;
43807;SDS011;29438;50.664;10.098;2022-08-02T03:01:09;5.63;;;3.70;;
43807;SDS011;29438;50.664;10.098;2022-08-02T03:03:55;5.15;;;3.92;;
43807;SDS011;29438;50.664;10.098;2022-08-02T03:06:23;5.93;;;3.67;;
43807;SDS011;29438;50.664;10.098;2022-08-02T03:08:49;5.10;;;3.83;;
43807;SDS011;29438;50.664;10.098;2022-08-02T03:11:15;5.00;;;3.40;;
43807;SDS011;29438;50.664;10.098;2022-08-02T03:13:41;5.35;;;3.78;;
43807;SDS011;29438;50.664;10.098;2022-08-02T03:16:07;5.00;;;3.53;;
43807;SDS011;29438;50.664;10.098;2022-08-02T03:18:38;4.82;;;3.60;;
43807;SDS011;29438;50.664;10.098;2022-08-02T03:21:06;5.40;;;3.80;;
43807;SDS011;29438;50.664;10.098;2022-08-02T03:23:33;5.70;;;4.22;;
43807;SDS011;29438;50.664;10.098;2022-08-02T03:25:59;6.30;;;4.22;;
43807;SDS011;29438;50.664;10.098;2022-08-02T03:28:25;5.07;;;3.92;;
43807;SDS011;29438;50.664;10.098;2022-08-02T03:30:51;6.82;;;4.03;;
43807;SDS011;29438;50.664;10.098;2022-08-02T03:33:17;5.30;;;3.90;;
43807;SDS011;29438;50.664;10.098;2022-08-02T03:35:44;7.95;;;4.15;;
43807;SDS011;29438;50.664;10.098;2022-08-02T03:38:12;4.88;;;3.95;;
43807;SDS011;29438;50.664;10.098;2022-08-02T03:40:40;6.13;;;3.90;;
43807;SDS011;29438;50.664;10.098;2022-08-02T03:43:08;6.15;;;4.35;;
43807;SDS011;29438;50.664;10.098;2022-08-02T03:45:34;4.80;;;3.85;;
43807;SDS011;29438;50.664;10.098;2022-08-02T03:48:01;5.95;;;3.75;;
43807;SDS011;29438;50.664;10.098;2022-08-02T03:50:28;4.90;;;3.90;;
43807;SDS011;29438;50.664;10.098;2022-08-02T03:52:53;5.82;;;3.53;;
43807;SDS011;29438;50.664;10.098;2022-08-02T03:55:20;5.47;;;3.67;;
43807;SDS011;29438;50.664;10.098;2022-08-02T03:57:46;5.22;;;3.90;;
43807;SDS011;29438;50.664;10.098;2022-08-02T04:00:16;5.85;;;3.97;;
43807;SDS011;29438;50.664;10.098;2022-08-02T04:02:43;4.75;;;3.60;;
43807;SDS011;29438;50.664;10.098;2022-08-02T04:05:09;6.25;;;3.70;;
43807;SDS011;29438;50.664;10.098;2022-08-02T04:07:34;6.03;;;3.58;;
43807;SDS011;29438;50.664;10.098;2022-08-02T04:10:00;5.15;;;3.45;;
43807;SDS011;29438;50.664;10.098;2022-08-02T04:12:25;3.97;;;3.08;;
43807;SDS011;29438;50.664;10.098;2022-08-02T04:14:51;5.45;;;3.35;;
43807;SDS011;29438;50.664;10.098;2022-08-02T04:17:17;5.03;;;3.60;;
43807;SDS011;29438;50.664;10.098;2022-08-02T04:19:46;3.72;;;2.78;;
43807;SDS011;29438;50.664;10.098;2022-08-02T04:22:15;5.05;;;2.60;;
43807;SDS011;29438;50.664;10.098;2022-08-02T04:24:44;2.80;;;2.03;;
43807;SDS011;29438;50.664;10.098;2022-08-02T04:27:14;3.13;;;2.10;;
43807;SDS011;29438;50.664;10.098;2022-08-02T04:29:40;2.53;;;2.00;;
43807;SDS011;29438;50.664;10.098;2022-08-02T04:32:07;2.80;;;1.90;;
43807;SDS011;29438;50.664;10.098;2022-08-02T04:34:33;2.28;;;1.58;;
43807;SDS011;29438;50.664;10.098;2022-08-02T04:36:59;2.20;;;1.55;;
43807;SDS011;29438;50.664;10.098;2022-08-02T04:39:25;3.05;;;1.52;;
43807;SDS011;29438;50.664;10.098;2022-08-02T04:41:50;2.00;;;1.42;;
43807;SDS011;29438;50.664;10.098;2022-08-02T04:44:16;4.38;;;2.45;;
43807;SDS011;29438;50.664;10.098;2022-08-02T04:46:42;4.35;;;2.90;;
43807;SDS011;29438;50.664;10.098;2022-08-02T04:49:08;3.95;;;2.53;;
43807;SDS011;29438;50.664;10.098;2022-08-02T04:51:37;3.45;;;2.63;;
43807;SDS011;29438;50.664;10.098;2022-08-02T04:54:05;3.20;;;2.00;;
43807;SDS011;29438;50.664;10.098;2022-08-02T04:56:31;1.90;;;1.60;;
43807;SDS011;29438;50.664;10.098;2022-08-02T04:58:57;2.25;;;1.40;;
43807;SDS011;29438;50.664;10.098;2022-08-02T05:01:22;2.40;;;1.50;;
43807;SDS011;29438;50.664;10.098;2022-08-02T05:03:48;2.72;;;1.40;;
43807;SDS011;29438;50.664;10.098;2022-08-02T05:06:13;2.78;;;1.42;;
43807;SDS011;29438;50.664;10.098;2022-08-02T05:08:40;3.85;;;1.50;;
43807;SDS011;29438;50.664;10.098;2022-08-02T05:11:05;1.73;;;1.30;;
43807;SDS011;29438;50.664;10.098;2022-08-02T05:13:31;2.55;;;1.20;;
43807;SDS011;29438;50.664;10.098;2022-08-02T05:15:56;2.05;;;1.30;;
43807;SDS011;29438;50.664;10.098;2022-08-02T05:18:25;2.28;;;1.35;;
43807;SDS011;29438;50.664;10.098;2022-08-02T05:20:52;2.40;;;1.30;;
43807;SDS011;29438;50.664;10.098;2022-08-02T05:23:18;1.50;;;1.20;;
43807;SDS011;29438;50.664;10.098;2022-08-02T05:25:43;3.05;;;1.27;;
43807;SDS011;29438;50.664;10.098;2022-08-02T05:28:08;1.67;;;1.10;;
43807;SDS011;29438;50.664;10.098;2022-08-02T05:30:34;1.77;;;1.00;;
43807;SDS011;29438;50.664;10.098;2022-08-02T05:33:00;1.60;;;1.17;;
43807;SDS011;29438;50.664;10.098;2022-08-02T05:35:25;1.50;;;1.10;;
43807;SDS011;29438;50.664;10.098;2022-08-02T05:37:51;2.15;;;1.13;;
43807;SDS011;29438;50.664;10.098;2022-08-02T05:40:17;3.33;;;1.27;;
43807;SDS011;29438;50.664;10.098;2022-08-02T05:42:43;1.27;;;1.00;;
43807;SDS011;29438;50.664;10.098;2022-08-02T05:45:09;1.85;;;1.13;;
43807;SDS011;29438;50.664;10.098;2022-08-02T05:47:35;1.40;;;1.05;;
43807;SDS011;29438;50.664;10.098;2022-08-02T05:50:02;2.33;;;0.93;;
43807;SDS011;29438;50.664;10.098;2022-08-02T05:52:34;1.70;;;1.15;;
43807;SDS011;29438;50.664;10.098;2022-08-02T05:55:16;2.15;;;0.85;;
43807;SDS011;29438;50.664;10.098;2022-08-02T05:58:02;1.67;;;0.82;;
43807;SDS011;29438;50.664;10.098;2022-08-02T06:00:48;2.17;;;0.90;;
43807;SDS011;29438;50.664;10.098;2022-08-02T06:03:21;1.30;;;0.90;;
43807;SDS011;29438;50.664;10.098;2022-08-02T06:05:57;1.20;;;1.00;;
43807;SDS011;29438;50.664;10.098;2022-08-02T06:08:30;1.83;;;0.90;;
43807;SDS011;29438;50.664;10.098;2022-08-02T06:10:58;1.55;;;0.98;;
43807;SDS011;29438;50.664;10.098;2022-08-02T06:13:27;3.40;;;1.15;;
43807;SDS011;29438;50.664;10.098;2022-08-02T06:15:53;2.35;;;1.00;;
43807;SDS011;29438;50.664;10.098;2022-08-02T06:18:23;1.83;;;0.90;;
43807;SDS011;29438;50.664;10.098;2022-08-02T06:20:50;1.48;;;0.95;;
43807;SDS011;29438;50.664;10.098;2022-08-02T06:23:16;2.00;;;1.23;;
43807;SDS011;29438;50.664;10.098;2022-08-02T06:25:46;1.75;;;1.10;;
43807;SDS011;29438;50.664;10.098;2022-08-02T06:28:14;1.73;;;1.17;;
43807;SDS011;29438;50.664;10.098;2022-08-02T06:30:40;1.60;;;0.90;;
43807;SDS011;29438;50.664;10.098;2022-08-02T06:33:08;1.50;;;1.00;;
43807;SDS011;29438;50.664;10.098;2022-08-02T06:35:51;1.63;;;0.85;;
43807;SDS011;29438;50.664;10.098;2022-08-02T06:38:41;1.88;;;0.80;;
43807;SDS011;29438;50.664;10.098;2022-08-02T06:41:08;1.50;;;0.68;;
43807;SDS011;29438;50.664;10.098;2022-08-02T06:43:40;1.45;;;0.70;;
43807;SDS011;29438;50.664;10.098;2022-08-02T06:46:11;1.90;;;0.70;;
43807;SDS011;29438;50.664;10.098;2022-08-02T06:48:37;2.10;;;0.80;;
43807;SDS011;29438;50.664;10.098;2022-08-02T06:51:02;1.48;;;0.77;;
43807;SDS011;29438;50.664;10.098;2022-08-02T06:53:29;1.77;;;0.77;;
43807;SDS011;29438;50.664;10.098;2022-08-02T06:55:54;2.08;;;0.80;;
43807;SDS011;29438;50.664;10.098;2022-08-02T06:58:20;1.63;;;1.00;;
43807;SDS011;29438;50.664;10.098;2022-08-02T07:00:46;1.33;;;0.85;;
43807;SDS011;29438;50.664;10.098;2022-08-02T07:03:11;1.48;;;0.70;;
43807;SDS011;29438;50.664;10.098;2022-08-02T07:05:37;2.55;;;0.90;;
43807;SDS011;29438;50.664;10.098;2022-08-02T07:08:05;1.42;;;0.88;;
43807;SDS011;29438;50.664;10.098;2022-08-02T07:10:30;1.30;;;0.98;;
43807;SDS011;29438;50.664;10.098;2022-08-02T07:12:56;1.20;;;0.70;;
43807;SDS011;29438;50.664;10.098;2022-08-02T07:15:21;1.75;;;0.88;;
43807;SDS011;29438;50.664;10.098;2022-08-02T07:17:47;1.85;;;0.73;;
43807;SDS011;29438;50.664;10.098;2022-08-02T07:20:12;1.45;;;0.88;;
43807;SDS011;29438;50.664;10.098;2022-08-02T07:22:39;1.00;;;0.75;;
43807;SDS011;29438;50.664;10.098;2022-08-02T07:25:04;1.23;;;0.70;;
43807;SDS011;29438;50.664;10.098;2022-08-02T07:27:31;1.67;;;1.02;;
43807;SDS011;29438;50.664;10.098;2022-08-02T07:29:57;1.58;;;0.85;;
43807;SDS011;29438;50.664;10.098;2022-08-02T07:32:23;1.55;;;1.00;;
43807;SDS011;29438;50.664;10.098;2022-08-02T07:34:51;1.58;;;1.02;;
43807;SDS011;29438;50.664;10.098;2022-08-02T07:37:17;1.92;;;1.05;;
43807;SDS011;29438;50.664;10.098;2022-08-02T07:39:43;2.55;;;1.30;;
43807;SDS011;29438;50.664;10.098;2022-08-02T07:42:09;1.33;;;1.10;;
43807;SDS011;29438;50.664;10.098;2022-08-02T07:44:34;2.00;;;1.20;;
43807;SDS011;29438;50.664;10.098;2022-08-02T07:47:00;2.03;;;1.48;;
43807;SDS011;29438;50.664;10.098;2022-08-02T07:49:26;1.80;;;1.30;;
43807;SDS011;29438;50.664;10.098;2022-08-02T07:51:52;2.03;;;1.25;;
43807;SDS011;29438;50.664;10.098;2022-08-02T07:54:18;2.25;;;1.25;;
43807;SDS011;29438;50.664;10.098;2022-08-02T07:56:44;2.08;;;1.30;;
43807;SDS011;29438;50.664;10.098;2022-08-02T07:59:10;2.50;;;1.17;;
43807;SDS011;29438;50.664;10.098;2022-08-02T08:01:35;1.60;;;1.10;;
43807;SDS011;29438;50.664;10.098;2022-08-02T08:04:01;1.38;;;1.15;;
43807;SDS011;29438;50.664;10.098;2022-08-02T08:06:28;2.00;;;1.20;;
43807;SDS011;29438;50.664;10.098;2022-08-02T08:08:54;1.83;;;1.02;;
43807;SDS011;29438;50.664;10.098;2022-08-02T08:11:20;1.70;;;1.00;;
43807;SDS011;29438;50.664;10.098;2022-08-02T08:13:45;2.20;;;1.20;;
43807;SDS011;29438;50.664;10.098;2022-08-02T08:16:11;1.77;;;0.88;;
43807;SDS011;29438;50.664;10.098;2022-08-02T08:18:37;1.73;;;0.90;;
43807;SDS011;29438;50.664;10.098;2022-08-02T08:21:02;2.33;;;0.90;;
43807;SDS011;29438;50.664;10.098;2022-08-02T08:23:28;1.10;;;0.80;;
43807;SDS011;29438;50.664;10.098;2022-08-02T08:25:53;1.65;;;0.63;;
43807;SDS011;29438;50.664;10.098;2022-08-02T08:28:19;1.00;;;0.60;;
43807;SDS011;29438;50.664;10.098;2022-08-02T08:30:45;1.65;;;0.57;;
43807;SDS011;29438;50.664;10.098;2022-08-02T08:33:12;1.38;;;0.52;;
43807;SDS011;29438;50.664;10.098;2022-08-02T08:35:38;0.70;;;0.40;;
43807;SDS011;29438;50.664;10.098;2022-08-02T08:38:03;0.80;;;0.40;;
43807;SDS011;29438;50.664;10.098;2022-08-02T08:40:29;1.15;;;0.50;;
43807;SDS011;29438;50.664;10.098;2022-08-02T08:42:55;3.08;;;0.20;;
43807;SDS011;29438;50.664;10.098;2022-08-02T08:45:21;0.95;;;0.30;;
43807;SDS011;29438;50.664;10.098;2022-08-02T08:47:50;0.70;;;0.30;;
43807;SDS011;29438;50.664;10.098;2022-08-02T08:50:20;1.50;;;0.40;;
43807;SDS011;29438;50.664;10.098;2022-08-02T08:52:56;0.85;;;0.40;;
43807;SDS011;29438;50.664;10.098;2022-08-02T08:55:27;0.70;;;0.40;;
43807;SDS011;29438;50.664;10.098;2022-08-02T08:57:54;4.90;;;1.15;;
43807;SDS011;29438;50.664;10.098;2022-08-02T09:00:21;0.98;;;0.50;;
43807;SDS011;29438;50.664;10.098;2022-08-02T09:02:47;1.45;;;0.35;;
43807;SDS011;29438;50.664;10.098;2022-08-02T09:05:14;1.13;;;0.50;;
43807;SDS011;29438;50.664;10.098;2022-08-02T09:08:01;0.80;;;0.40;;
43807;SDS011;29438;50.664;10.098;2022-08-02T09:10:37;1.00;;;0.40;;
43807;SDS011;29438;50.664;10.098;2022-08-02T09:13:13;0.80;;;0.40;;
43807;SDS011;29438;50.664;10.098;2022-08-02T09:15:54;0.70;;;0.38;;
43807;SDS011;29438;50.664;10.098;2022-08-02T09:20:56;0.95;;;0.60;;
43807;SDS011;29438;50.664;10.098;2022-08-02T09:23:33;1.85;;;0.50;;
43807;SDS011;29438;50.664;10.098;2022-08-02T09:26:06;0.82;;;0.50;;
43807;SDS011;29438;50.664;10.098;2022-08-02T09:28:35;2.00;;;0.40;;
43807;SDS011;29438;50.664;10.098;2022-08-02T09:31:09;0.70;;;0.40;;
43807;SDS011;29438;50.664;10.098;2022-08-02T09:33:37;1.17;;;0.45;;
43807;SDS011;29438;50.664;10.098;2022-08-02T09:36:09;1.98;;;0.60;;
43807;SDS011;29438;50.664;10.098;2022-08-02T09:41:25;1.08;;;0.50;;
43807;SDS011;29438;50.664;10.098;2022-08-02T09:43:53;2.65;;;0.60;;
43807;SDS011;29438;50.664;10.098;2022-08-02T09:46:20;0.85;;;0.60;;
43807;SDS011;29438;50.664;10.098;2022-08-02T09:48:52;1.75;;;0.60;;
43807;SDS011;29438;50.664;10.098;2022-08-02T09:53:55;1.27;;;0.40;;
43807;SDS011;29438;50.664;10.098;2022-08-02T09:56:26;1.02;;;0.40;;
43807;SDS011;29438;50.664;10.098;2022-08-02T09:58:53;1.70;;;0.40;;
43807;SDS011;29438;50.664;10.098;2022-08-02T10:01:29;0.80;;;0.60;;
43807;SDS011;29438;50.664;10.098;2022-08-02T10:04:00;1.35;;;0.50;;
43807;SDS011;29438;50.664;10.098;2022-08-02T10:06:28;2.10;;;0.75;;
43807;SDS011;29438;50.664;10.098;2022-08-02T10:08:54;1.67;;;0.65;;
43807;SDS011;29438;50.664;10.098;2022-08-02T10:11:23;0.90;;;0.60;;
43807;SDS011;29438;50.664;10.098;2022-08-02T10:13:51;1.60;;;0.80;;
43807;SDS011;29438;50.664;10.098;2022-08-02T10:16:18;1.48;;;0.68;;
43807;SDS011;29438;50.664;10.098;2022-08-02T10:18:47;1.08;;;0.75;;
43807;SDS011;29438;50.664;10.098;2022-08-02T10:21:19;1.20;;;0.85;;
43807;SDS011;29438;50.664;10.098;2022-08-02T10:24:03;1.52;;;0.77;;
43807;SDS011;29438;50.664;10.098;2022-08-02T10:26:31;1.23;;;0.57;;
43807;SDS011;29438;50.664;10.098;2022-08-02T10:28:57;1.10;;;0.70;;
43807;SDS011;29438;50.664;10.098;2022-08-02T10:31:24;1.15;;;0.50;;
43807;SDS011;29438;50.664;10.098;2022-08-02T10:36:22;1.20;;;0.55;;
43807;SDS011;29438;50.664;10.098;2022-08-02T10:38:51;1.50;;;0.70;;
43807;SDS011;29438;50.664;10.098;2022-08-02T10:44:19;2.20;;;0.70;;
43807;SDS011;29438;50.664;10.098;2022-08-02T10:46:45;1.63;;;0.40;;
43807;SDS011;29438;50.664;10.098;2022-08-02T10:49:12;0.73;;;0.50;;
43807;SDS011;29438;50.664;10.098;2022-08-02T10:51:52;1.20;;;0.50;;
43807;SDS011;29438;50.664;10.098;2022-08-02T10:54:19;1.55;;;0.50;;
43807;SDS011;29438;50.664;10.098;2022-08-02T10:56:48;0.70;;;0.40;;
43807;SDS011;29438;50.664;10.098;2022-08-02T10:59:22;1.88;;;0.50;;
43807;SDS011;29438;50.664;10.098;2022-08-02T11:01:51;1.00;;;0.38;;
43807;SDS011;29438;50.664;10.098;2022-08-02T11:04:25;1.88;;;0.60;;
43807;SDS011;29438;50.664;10.098;2022-08-02T11:07:11;1.27;;;0.70;;
43807;SDS011;29438;50.664;10.098;2022-08-02T11:09:39;0.90;;;0.60;;
43807;SDS011;29438;50.664;10.098;2022-08-02T11:12:09;1.42;;;0.60;;
43807;SDS011;29438;50.664;10.098;2022-08-02T11:14:37;2.85;;;0.52;;
43807;SDS011;29438;50.664;10.098;2022-08-02T11:17:17;1.00;;;0.52;;
43807;SDS011;29438;50.664;10.098;2022-08-02T11:22:39;1.30;;;0.75;;
43807;SDS011;29438;50.664;10.098;2022-08-02T11:27:53;1.60;;;0.70;;
43807;SDS011;29438;50.664;10.098;2022-08-02T11:30:32;2.20;;;0.80;;
43807;SDS011;29438;50.664;10.098;2022-08-02T11:32:58;1.00;;;0.80;;
43807;SDS011;29438;50.664;10.098;2022-08-02T11:35:31;1.17;;;0.77;;
43807;SDS011;29438;50.664;10.098;2022-08-02T11:38:02;1.33;;;0.80;;
43807;SDS011;29438;50.664;10.098;2022-08-02T11:40:44;1.83;;;0.70;;
43807;SDS011;29438;50.664;10.098;2022-08-02T11:43:14;2.25;;;0.80;;
43807;SDS011;29438;50.664;10.098;2022-08-02T11:45:41;1.00;;;0.60;;
43807;SDS011;29438;50.664;10.098;2022-08-02T11:48:07;1.25;;;0.88;;
43807;SDS011;29438;50.664;10.098;2022-08-02T11:50:32;1.25;;;0.70;;
43807;SDS011;29438;50.664;10.098;2022-08-02T11:52:58;1.77;;;0.90;;
43807;SDS011;29438;50.664;10.098;2022-08-02T11:55:27;1.38;;;0.70;;
43807;SDS011;29438;50.664;10.098;2022-08-02T11:57:57;2.17;;;0.63;;
43807;SDS011;29438;50.664;10.098;2022-08-02T12:00:24;0.85;;;0.55;;
43807;SDS011;29438;50.664;10.098;2022-08-02T12:02:50;1.67;;;0.60;;
43807;SDS011;29438;50.664;10.098;2022-08-02T12:05:20;1.00;;;0.68;;
43807;SDS011;29438;50.664;10.098;2022-08-02T12:07:48;2.30;;;0.70;;
43807;SDS011;29438;50.664;10.098;2022-08-02T12:10:19;1.83;;;0.65;;
43807;SDS011;29438;50.664;10.098;2022-08-02T12:12:56;1.92;;;0.43;;
43807;SDS011;29438;50.664;10.098;2022-08-02T12:15:37;1.10;;;0.60;;
43807;SDS011;29438;50.664;10.098;2022-08-02T12:18:09;2.03;;;0.77;;
43807;SDS011;29438;50.664;10.098;2022-08-02T12:20:56;2.28;;;0.50;;
43807;SDS011;29438;50.664;10.098;2022-08-02T12:23:22;1.35;;;0.60;;
43807;SDS011;29438;50.664;10.098;2022-08-02T12:28:34;0.90;;;0.57;;
43807;SDS011;29438;50.664;10.098;2022-08-02T12:31:03;0.77;;;0.40;;
43807;SDS011;29438;50.664;10.098;2022-08-02T12:33:43;1.02;;;0.50;;
43807;SDS011;29438;50.664;10.098;2022-08-02T12:36:19;1.77;;;0.60;;
43807;SDS011;29438;50.664;10.098;2022-08-02T12:38:58;1.05;;;0.57;;
43807;SDS011;29438;50.664;10.098;2022-08-02T12:41:25;0.97;;;0.60;;
43807;SDS011;29438;50.664;10.098;2022-08-02T12:43:52;1.30;;;0.55;;
43807;SDS011;29438;50.664;10.098;2022-08-02T12:46:19;1.02;;;0.60;;
43807;SDS011;29438;50.664;10.098;2022-08-02T12:48:46;0.85;;;0.40;;
43807;SDS011;29438;50.664;10.098;2022-08-02T12:51:36;0.98;;;0.50;;
43807;SDS011;29438;50.664;10.098;2022-08-02T12:54:18;1.55;;;0.55;;
43807;SDS011;29438;50.664;10.098;2022-08-02T12:56:45;1.00;;;0.50;;
43807;SDS011;29438;50.664;10.098;2022-08-02T12:59:11;2.40;;;0.50;;
43807;SDS011;29438;50.664;10.098;2022-08-02T13:01:37;1.02;;;0.50;;
43807;SDS011;29438;50.664;10.098;2022-08-02T13:04:03;1.00;;;0.50;;
43807;SDS011;29438;50.664;10.098;2022-08-02T13:06:29;0.85;;;0.50;;
43807;SDS011;29438;50.664;10.098;2022-08-02T13:08:55;1.90;;;0.47;;
43807;SDS011;29438;50.664;10.098;2022-08-02T13:11:22;1.27;;;0.30;;
43807;SDS011;29438;50.664;10.098;2022-08-02T13:13:49;0.88;;;0.50;;
43807;SDS011;29438;50.664;10.098;2022-08-02T13:16:15;1.52;;;0.40;;
43807;SDS011;29438;50.664;10.098;2022-08-02T13:18:41;1.05;;;0.55;;
43807;SDS011;29438;50.664;10.098;2022-08-02T13:21:06;1.60;;;0.60;;
43807;SDS011;29438;50.664;10.098;2022-08-02T13:23:33;1.00;;;0.40;;
43807;SDS011;29438;50.664;10.098;2022-08-02T13:26:00;0.98;;;0.50;;
43807;SDS011;29438;50.664;10.098;2022-08-02T13:28:26;0.98;;;0.40;;
43807;SDS011;29438;50.664;10.098;2022-08-02T13:30:51;0.80;;;0.50;;
43807;SDS011;29438;50.664;10.098;2022-08-02T13:33:17;1.00;;;0.50;;
43807;SDS011;29438;50.664;10.098;2022-08-02T13:35:43;1.15;;;0.55;;
43807;SDS011;29438;50.664;10.098;2022-08-02T13:38:09;0.90;;;0.30;;
43807;SDS011;29438;50.664;10.098;2022-08-02T13:40:34;1.73;;;0.55;;
43807;SDS011;29438;50.664;10.098;2022-08-02T13:43:23;0.57;;;0.20;;
43807;SDS011;29438;50.664;10.098;2022-08-02T13:45:49;1.35;;;0.35;;
43807;SDS011;29438;50.664;10.098;2022-08-02T13:48:14;1.08;;;0.40;;
43807;SDS011;29438;50.664;10.098;2022-08-02T13:50:40;1.02;;;0.47;;
43807;SDS011;29438;50.664;10.098;2022-08-02T13:53:08;0.70;;;0.38;;
43807;SDS011;29438;50.664;10.098;2022-08-02T13:55:34;0.68;;;0.40;;
43807;SDS011;29438;50.664;10.098;2022-08-02T13:57:59;0.88;;;0.50;;
43807;SDS011;29438;50.664;10.098;2022-08-02T14:00:25;3.22;;;0.65;;
43807;SDS011;29438;50.664;10.098;2022-08-02T14:02:50;1.45;;;0.50;;
43807;SDS011;29438;50.664;10.098;2022-08-02T14:05:16;0.75;;;0.50;;
43807;SDS011;29438;50.664;10.098;2022-08-02T14:07:41;0.90;;;0.50;;
43807;SDS011;29438;50.664;10.098;2022-08-02T14:10:07;1.35;;;0.60;;
43807;SDS011;29438;50.664;10.098;2022-08-02T14:12:33;1.42;;;0.50;;
43807;SDS011;29438;50.664;10.098;2022-08-02T14:14:59;0.90;;;0.50;;
43807;SDS011;29438;50.664;10.098;2022-08-02T14:17:24;0.90;;;0.50;;
43807;SDS011;29438;50.664;10.098;2022-08-02T14:19:50;1.10;;;0.50;;
43807;SDS011;29438;50.664;10.098;2022-08-02T14:22:15;0.80;;;0.40;;
43807;SDS011;29438;50.664;10.098;2022-08-02T14:24:41;1.42;;;0.50;;
43807;SDS011;29438;50.664;10.098;2022-08-02T14:27:07;1.13;;;0.52;;
43807;SDS011;29438;50.664;10.098;2022-08-02T14:29:33;1.15;;;0.50;;
43807;SDS011;29438;50.664;10.098;2022-08-02T14:31:58;1.13;;;0.47;;
43807;SDS011;29438;50.664;10.098;2022-08-02T14:34:24;1.13;;;0.60;;
43807;SDS011;29438;50.664;10.098;2022-08-02T14:36:50;3.40;;;0.50;;
43807;SDS011;29438;50.664;10.098;2022-08-02T14:39:15;1.20;;;0.60;;
43807;SDS011;29438;50.664;10.098;2022-08-02T14:41:42;1.85;;;0.60;;
43807;SDS011;29438;50.664;10.098;2022-08-02T14:44:07;1.02;;;0.50;;
43807;SDS011;29438;50.664;10.098;2022-08-02T14:46:35;1.52;;;0.57;;
43807;SDS011;29438;50.664;10.098;2022-08-02T14:49:04;1.88;;;0.50;;
43807;SDS011;29438;50.664;10.098;2022-08-02T14:51:32;2.40;;;0.88;;
43807;SDS011;29438;50.664;10.098;2022-08-02T14:53:58;2.03;;;0.68;;
43807;SDS011;29438;50.664;10.098;2022-08-02T14:56:25;2.33;;;0.60;;
43807;SDS011;29438;50.664;10.098;2022-08-02T14:58:50;1.10;;;0.60;;
43807;SDS011;29438;50.664;10.098;2022-08-02T15:01:17;1.05;;;0.60;;
43807;SDS011;29438;50.664;10.098;2022-08-02T15:03:42;0.70;;;0.55;;